Euclid, Minnesota
Current Conditions -  °F | °C
As of 4:14 AM on Friday 31 Oct 2014 (Local Time) from KCKN Reporting Station
Clear Clear  
Wind Chill: 11°   Ceiling: Unl
Heat Index: 18°   Visibility: 10mi
Dew Point: 16°   Wind: 5mph
Humidity: 93%   Direction: 30°NNE
Pressure: 30.6"   Gusts: NA
Location:  47.97°N, 96.64°W
Report Text: KCKN 310914Z AUTO 03004KT 10SM CLR M08/M09 A3060 RMK AO2
Loading
Personal Weather Stations






























Interactive Weather Map
Tropical Storm Tracking
New forecast layout! Learn more

10-Day Weather Forecast

Advertisements
Track Severe Weather on mobile